sensor_id;sensor_type;location;lat;lon;timestamp;temperature;humidity
9925;DHT22;5001;51.674;7.868;2024-03-08T00:00:10;2.60;99.90
9925;DHT22;5001;51.674;7.868;2024-03-08T00:02:42;2.50;99.90
9925;DHT22;5001;51.674;7.868;2024-03-08T00:05:09;2.50;99.90
9925;DHT22;5001;51.674;7.868;2024-03-08T00:07:37;2.50;99.90
9925;DHT22;5001;51.674;7.868;2024-03-08T00:10:06;2.50;99.90
9925;DHT22;5001;51.674;7.868;2024-03-08T00:12:34;2.40;99.90
9925;DHT22;5001;51.674;7.868;2024-03-08T00:15:02;2.40;99.90
9925;DHT22;5001;51.674;7.868;2024-03-08T00:17:29;2.40;99.90
9925;DHT22;5001;51.674;7.868;2024-03-08T00:19:56;2.40;99.90
9925;DHT22;5001;51.674;7.868;2024-03-08T00:22:24;2.40;99.90
9925;DHT22;5001;51.674;7.868;2024-03-08T00:24:51;2.40;99.90
9925;DHT22;5001;51.674;7.868;2024-03-08T00:27:18;2.40;99.90
9925;DHT22;5001;51.674;7.868;2024-03-08T00:29:48;2.40;99.90
9925;DHT22;5001;51.674;7.868;2024-03-08T00:32:15;2.30;99.90
9925;DHT22;5001;51.674;7.868;2024-03-08T00:34:43;2.40;99.90
9925;DHT22;5001;51.674;7.868;2024-03-08T00:37:10;2.40;99.90
9925;DHT22;5001;51.674;7.868;2024-03-08T00:39:37;2.40;99.90
9925;DHT22;5001;51.674;7.868;2024-03-08T00:42:04;2.30;99.90
9925;DHT22;5001;51.674;7.868;2024-03-08T00:44:31;2.30;99.90
9925;DHT22;5001;51.674;7.868;2024-03-08T00:46:59;2.30;99.90
9925;DHT22;5001;51.674;7.868;2024-03-08T00:49:26;2.10;99.90
9925;DHT22;5001;51.674;7.868;2024-03-08T00:51:53;2.20;99.90
9925;DHT22;5001;51.674;7.868;2024-03-08T00:54:20;2.20;99.90
9925;DHT22;5001;51.674;7.868;2024-03-08T00:56:47;2.20;99.90
9925;DHT22;5001;51.674;7.868;2024-03-08T00:59:14;2.20;99.90
9925;DHT22;5001;51.674;7.868;2024-03-08T01:01:41;2.20;99.90
9925;DHT22;5001;51.674;7.868;2024-03-08T01:04:08;2.20;99.90
9925;DHT22;5001;51.674;7.868;2024-03-08T01:06:35;2.10;99.90
9925;DHT22;5001;51.674;7.868;2024-03-08T01:09:02;2.10;99.90
9925;DHT22;5001;51.674;7.868;2024-03-08T01:11:29;2.10;99.90
9925;DHT22;5001;51.674;7.868;2024-03-08T01:13:56;2.10;99.90
9925;DHT22;5001;51.674;7.868;2024-03-08T01:16:24;2.10;99.90
9925;DHT22;5001;51.674;7.868;2024-03-08T01:18:50;2.20;99.90
9925;DHT22;5001;51.674;7.868;2024-03-08T01:21:18;2.20;99.90
9925;DHT22;5001;51.674;7.868;2024-03-08T01:23:45;2.20;99.90
9925;DHT22;5001;51.674;7.868;2024-03-08T01:26:12;2.20;99.90
9925;DHT22;5001;51.674;7.868;2024-03-08T01:28:38;2.20;99.90
9925;DHT22;5001;51.674;7.868;2024-03-08T01:31:05;2.30;99.90
9925;DHT22;5001;51.674;7.868;2024-03-08T01:33:33;2.30;99.90
9925;DHT22;5001;51.674;7.868;2024-03-08T01:36:00;2.20;99.90
9925;DHT22;5001;51.674;7.868;2024-03-08T01:38:27;2.20;99.90
9925;DHT22;5001;51.674;7.868;2024-03-08T01:40:54;2.20;99.90
9925;DHT22;5001;51.674;7.868;2024-03-08T01:43:25;2.20;99.90
9925;DHT22;5001;51.674;7.868;2024-03-08T01:45:58;2.20;99.90
9925;DHT22;5001;51.674;7.868;2024-03-08T01:48:29;2.20;99.90
9925;DHT22;5001;51.674;7.868;2024-03-08T01:50:57;2.10;99.90
9925;DHT22;5001;51.674;7.868;2024-03-08T01:53:25;2.00;99.90
9925;DHT22;5001;51.674;7.868;2024-03-08T01:55:55;2.00;99.90
9925;DHT22;5001;51.674;7.868;2024-03-08T01:58:23;2.10;99.90
9925;DHT22;5001;51.674;7.868;2024-03-08T02:00:50;2.00;99.90
9925;DHT22;5001;51.674;7.868;2024-03-08T02:03:17;2.00;99.90
9925;DHT22;5001;51.674;7.868;2024-03-08T02:05:44;1.90;99.90
9925;DHT22;5001;51.674;7.868;2024-03-08T02:08:12;2.00;99.90
9925;DHT22;5001;51.674;7.868;2024-03-08T02:10:46;1.90;99.90
9925;DHT22;5001;51.674;7.868;2024-03-08T02:13:14;1.90;99.90
9925;DHT22;5001;51.674;7.868;2024-03-08T02:16:00;1.90;99.90
9925;DHT22;5001;51.674;7.868;2024-03-08T02:18:30;2.00;99.90
9925;DHT22;5001;51.674;7.868;2024-03-08T02:21:02;2.00;99.90
9925;DHT22;5001;51.674;7.868;2024-03-08T02:23:30;2.00;99.90
9925;DHT22;5001;51.674;7.868;2024-03-08T02:25:57;1.90;99.90
9925;DHT22;5001;51.674;7.868;2024-03-08T02:28:25;2.00;99.90
9925;DHT22;5001;51.674;7.868;2024-03-08T02:30:52;2.00;99.90
9925;DHT22;5001;51.674;7.868;2024-03-08T02:33:26;1.90;99.90
9925;DHT22;5001;51.674;7.868;2024-03-08T02:35:54;1.90;99.90
9925;DHT22;5001;51.674;7.868;2024-03-08T02:38:23;1.80;99.90
9925;DHT22;5001;51.674;7.868;2024-03-08T02:40:52;1.80;99.90
9925;DHT22;5001;51.674;7.868;2024-03-08T02:43:21;1.70;99.90
9925;DHT22;5001;51.674;7.868;2024-03-08T02:45:52;1.70;99.90
9925;DHT22;5001;51.674;7.868;2024-03-08T02:48:22;1.70;99.90
9925;DHT22;5001;51.674;7.868;2024-03-08T02:50:49;1.60;99.90
9925;DHT22;5001;51.674;7.868;2024-03-08T02:53:18;1.50;99.90
9925;DHT22;5001;51.674;7.868;2024-03-08T02:55:46;1.50;99.90
9925;DHT22;5001;51.674;7.868;2024-03-08T02:58:14;1.40;99.90
9925;DHT22;5001;51.674;7.868;2024-03-08T03:04:41;1.50;99.90
9925;DHT22;5001;51.674;7.868;2024-03-08T03:07:08;1.40;99.90
9925;DHT22;5001;51.674;7.868;2024-03-08T03:09:35;1.50;99.90
9925;DHT22;5001;51.674;7.868;2024-03-08T03:12:03;1.40;99.90
9925;DHT22;5001;51.674;7.868;2024-03-08T03:14:30;1.40;99.90
9925;DHT22;5001;51.674;7.868;2024-03-08T03:16:57;1.50;99.90
9925;DHT22;5001;51.674;7.868;2024-03-08T03:19:24;1.40;99.90
9925;DHT22;5001;51.674;7.868;2024-03-08T03:21:51;1.40;99.90
9925;DHT22;5001;51.674;7.868;2024-03-08T03:24:19;1.50;99.90
9925;DHT22;5001;51.674;7.868;2024-03-08T03:26:48;1.50;99.90
9925;DHT22;5001;51.674;7.868;2024-03-08T03:29:16;1.50;99.90
9925;DHT22;5001;51.674;7.868;2024-03-08T03:31:43;1.60;99.90
9925;DHT22;5001;51.674;7.868;2024-03-08T03:34:13;1.50;99.90
9925;DHT22;5001;51.674;7.868;2024-03-08T03:36:40;1.50;99.90
9925;DHT22;5001;51.674;7.868;2024-03-08T03:39:09;1.50;99.90
9925;DHT22;5001;51.674;7.868;2024-03-08T03:41:42;1.60;99.90
9925;DHT22;5001;51.674;7.868;2024-03-08T03:44:13;1.50;99.90
9925;DHT22;5001;51.674;7.868;2024-03-08T03:46:43;1.40;99.90
9925;DHT22;5001;51.674;7.868;2024-03-08T03:49:13;1.40;99.90
9925;DHT22;5001;51.674;7.868;2024-03-08T03:51:40;1.40;99.90
9925;DHT22;5001;51.674;7.868;2024-03-08T03:54:07;1.30;99.90
9925;DHT22;5001;51.674;7.868;2024-03-08T03:56:34;1.30;99.90
9925;DHT22;5001;51.674;7.868;2024-03-08T03:59:01;1.30;99.90
9925;DHT22;5001;51.674;7.868;2024-03-08T04:01:28;1.40;99.90
9925;DHT22;5001;51.674;7.868;2024-03-08T04:03:56;1.30;99.90
9925;DHT22;5001;51.674;7.868;2024-03-08T04:06:23;1.20;99.90
9925;DHT22;5001;51.674;7.868;2024-03-08T04:08:50;1.20;99.90
9925;DHT22;5001;51.674;7.868;2024-03-08T04:11:18;1.10;99.90
9925;DHT22;5001;51.674;7.868;2024-03-08T04:13:45;1.10;99.90
9925;DHT22;5001;51.674;7.868;2024-03-08T04:16:11;1.10;99.90
9925;DHT22;5001;51.674;7.868;2024-03-08T04:18:38;1.00;99.90
9925;DHT22;5001;51.674;7.868;2024-03-08T04:21:05;1.00;99.90
9925;DHT22;5001;51.674;7.868;2024-03-08T04:23:34;1.10;99.90
9925;DHT22;5001;51.674;7.868;2024-03-08T04:26:03;1.00;99.90
9925;DHT22;5001;51.674;7.868;2024-03-08T04:28:31;1.00;99.90
9925;DHT22;5001;51.674;7.868;2024-03-08T04:30:58;1.10;99.90
9925;DHT22;5001;51.674;7.868;2024-03-08T04:33:27;1.10;99.90
9925;DHT22;5001;51.674;7.868;2024-03-08T04:35:55;1.10;99.90
9925;DHT22;5001;51.674;7.868;2024-03-08T04:38:22;1.20;99.90
9925;DHT22;5001;51.674;7.868;2024-03-08T04:40:49;1.10;99.90
9925;DHT22;5001;51.674;7.868;2024-03-08T04:43:17;1.10;99.90
9925;DHT22;5001;51.674;7.868;2024-03-08T04:45:45;1.10;99.90
9925;DHT22;5001;51.674;7.868;2024-03-08T04:48:12;1.10;99.90
9925;DHT22;5001;51.674;7.868;2024-03-08T04:50:39;1.10;99.90
9925;DHT22;5001;51.674;7.868;2024-03-08T04:53:06;1.10;99.90
9925;DHT22;5001;51.674;7.868;2024-03-08T04:55:35;1.00;99.90
9925;DHT22;5001;51.674;7.868;2024-03-08T04:58:02;0.90;99.90
9925;DHT22;5001;51.674;7.868;2024-03-08T05:00:31;0.90;99.90
9925;DHT22;5001;51.674;7.868;2024-03-08T05:02:58;0.90;99.90
9925;DHT22;5001;51.674;7.868;2024-03-08T05:05:25;0.90;99.90
9925;DHT22;5001;51.674;7.868;2024-03-08T05:07:55;0.80;99.90
9925;DHT22;5001;51.674;7.868;2024-03-08T05:10:22;0.80;99.90
9925;DHT22;5001;51.674;7.868;2024-03-08T05:12:49;0.70;99.90
9925;DHT22;5001;51.674;7.868;2024-03-08T05:15:17;0.70;99.90
9925;DHT22;5001;51.674;7.868;2024-03-08T05:17:44;0.70;99.90
9925;DHT22;5001;51.674;7.868;2024-03-08T05:20:12;0.70;99.90
9925;DHT22;5001;51.674;7.868;2024-03-08T05:22:40;0.80;99.90
9925;DHT22;5001;51.674;7.868;2024-03-08T05:25:07;0.80;99.90
9925;DHT22;5001;51.674;7.868;2024-03-08T05:27:39;0.80;99.90
9925;DHT22;5001;51.674;7.868;2024-03-08T05:30:06;0.70;99.90
9925;DHT22;5001;51.674;7.868;2024-03-08T05:32:33;0.70;99.90
9925;DHT22;5001;51.674;7.868;2024-03-08T05:35:00;0.70;99.90
9925;DHT22;5001;51.674;7.868;2024-03-08T05:37:27;0.60;99.90
9925;DHT22;5001;51.674;7.868;2024-03-08T05:39:54;0.60;99.90
9925;DHT22;5001;51.674;7.868;2024-03-08T05:42:21;0.60;99.90
9925;DHT22;5001;51.674;7.868;2024-03-08T05:44:48;0.60;99.90
9925;DHT22;5001;51.674;7.868;2024-03-08T05:47:16;0.60;99.90
9925;DHT22;5001;51.674;7.868;2024-03-08T05:49:45;0.60;99.90
9925;DHT22;5001;51.674;7.868;2024-03-08T05:52:12;0.50;99.90
9925;DHT22;5001;51.674;7.868;2024-03-08T05:54:39;0.50;99.90
9925;DHT22;5001;51.674;7.868;2024-03-08T05:57:07;0.50;99.90
9925;DHT22;5001;51.674;7.868;2024-03-08T05:59:34;0.50;99.90
9925;DHT22;5001;51.674;7.868;2024-03-08T06:02:01;0.50;99.90
9925;DHT22;5001;51.674;7.868;2024-03-08T06:04:29;0.60;99.90
9925;DHT22;5001;51.674;7.868;2024-03-08T06:06:56;0.60;99.90
9925;DHT22;5001;51.674;7.868;2024-03-08T06:09:24;0.60;99.90
9925;DHT22;5001;51.674;7.868;2024-03-08T06:11:52;0.60;99.90
9925;DHT22;5001;51.674;7.868;2024-03-08T06:14:21;0.60;99.90
9925;DHT22;5001;51.674;7.868;2024-03-08T06:16:47;0.60;99.90
9925;DHT22;5001;51.674;7.868;2024-03-08T06:19:17;0.80;99.90
9925;DHT22;5001;51.674;7.868;2024-03-08T06:21:44;1.40;99.90
9925;DHT22;5001;51.674;7.868;2024-03-08T06:24:12;2.10;99.90
9925;DHT22;5001;51.674;7.868;2024-03-08T06:26:39;2.40;99.90
9925;DHT22;5001;51.674;7.868;2024-03-08T06:29:06;2.80;99.90
9925;DHT22;5001;51.674;7.868;2024-03-08T06:31:33;3.30;99.90
9925;DHT22;5001;51.674;7.868;2024-03-08T06:34:01;3.80;99.90
9925;DHT22;5001;51.674;7.868;2024-03-08T06:36:28;4.20;99.90
9925;DHT22;5001;51.674;7.868;2024-03-08T06:38:55;4.50;99.90
9925;DHT22;5001;51.674;7.868;2024-03-08T06:41:24;4.80;99.90
9925;DHT22;5001;51.674;7.868;2024-03-08T06:43:51;5.10;99.90
9925;DHT22;5001;51.674;7.868;2024-03-08T06:46:24;5.10;99.90
9925;DHT22;5001;51.674;7.868;2024-03-08T06:48:51;5.10;99.90
9925;DHT22;5001;51.674;7.868;2024-03-08T06:51:19;5.70;99.90
9925;DHT22;5001;51.674;7.868;2024-03-08T06:53:46;6.10;99.90
9925;DHT22;5001;51.674;7.868;2024-03-08T06:56:13;5.80;99.90
9925;DHT22;5001;51.674;7.868;2024-03-08T06:58:40;6.40;99.90
9925;DHT22;5001;51.674;7.868;2024-03-08T07:01:07;7.00;99.90
9925;DHT22;5001;51.674;7.868;2024-03-08T07:03:44;7.40;99.90
9925;DHT22;5001;51.674;7.868;2024-03-08T07:10:11;8.10;99.90
9925;DHT22;5001;51.674;7.868;2024-03-08T07:12:41;8.10;99.90
9925;DHT22;5001;51.674;7.868;2024-03-08T07:15:09;8.40;99.90
9925;DHT22;5001;51.674;7.868;2024-03-08T07:17:40;8.30;99.90
9925;DHT22;5001;51.674;7.868;2024-03-08T07:20:08;8.50;99.90
9925;DHT22;5001;51.674;7.868;2024-03-08T07:22:38;8.40;99.90
9925;DHT22;5001;51.674;7.868;2024-03-08T07:25:06;8.40;99.90
9925;DHT22;5001;51.674;7.868;2024-03-08T07:27:50;10.00;99.90
9925;DHT22;5001;51.674;7.868;2024-03-08T07:30:19;10.00;99.90
9925;DHT22;5001;51.674;7.868;2024-03-08T07:33:05;10.00;99.90
9925;DHT22;5001;51.674;7.868;2024-03-08T07:35:34;10.40;99.90
9925;DHT22;5001;51.674;7.868;2024-03-08T07:38:05;10.10;99.90
9925;DHT22;5001;51.674;7.868;2024-03-08T07:40:38;10.50;99.90
9925;DHT22;5001;51.674;7.868;2024-03-08T07:43:08;9.80;99.90
9925;DHT22;5001;51.674;7.868;2024-03-08T07:45:35;10.60;99.90
9925;DHT22;5001;51.674;7.868;2024-03-08T07:48:03;11.20;99.90
9925;DHT22;5001;51.674;7.868;2024-03-08T07:50:31;11.10;99.90
9925;DHT22;5001;51.674;7.868;2024-03-08T07:53:00;9.50;99.90
9925;DHT22;5001;51.674;7.868;2024-03-08T07:55:28;7.70;99.90
9925;DHT22;5001;51.674;7.868;2024-03-08T07:57:55;6.40;99.90
9925;DHT22;5001;51.674;7.868;2024-03-08T08:00:22;5.70;99.90
9925;DHT22;5001;51.674;7.868;2024-03-08T08:02:51;5.40;99.90
9925;DHT22;5001;51.674;7.868;2024-03-08T08:05:18;5.20;99.90
9925;DHT22;5001;51.674;7.868;2024-03-08T08:07:45;5.30;99.90
9925;DHT22;5001;51.674;7.868;2024-03-08T08:10:16;5.20;99.90
9925;DHT22;5001;51.674;7.868;2024-03-08T08:12:49;5.20;99.90
9925;DHT22;5001;51.674;7.868;2024-03-08T08:15:16;5.20;99.90
9925;DHT22;5001;51.674;7.868;2024-03-08T08:17:44;5.20;99.90
9925;DHT22;5001;51.674;7.868;2024-03-08T08:20:12;5.20;99.90
9925;DHT22;5001;51.674;7.868;2024-03-08T08:22:41;5.10;99.90
9925;DHT22;5001;51.674;7.868;2024-03-08T08:25:08;5.00;99.90
9925;DHT22;5001;51.674;7.868;2024-03-08T08:27:35;5.10;99.90
9925;DHT22;5001;51.674;7.868;2024-03-08T08:30:06;5.00;99.90
9925;DHT22;5001;51.674;7.868;2024-03-08T08:32:35;4.90;99.90
9925;DHT22;5001;51.674;7.868;2024-03-08T08:35:04;5.10;99.90
9925;DHT22;5001;51.674;7.868;2024-03-08T08:37:41;5.00;99.90
9925;DHT22;5001;51.674;7.868;2024-03-08T08:40:08;5.00;99.90
9925;DHT22;5001;51.674;7.868;2024-03-08T08:42:37;5.20;99.90
9925;DHT22;5001;51.674;7.868;2024-03-08T08:45:07;5.20;99.90
9925;DHT22;5001;51.674;7.868;2024-03-08T08:47:44;5.20;99.90
9925;DHT22;5001;51.674;7.868;2024-03-08T08:50:12;5.50;99.90
9925;DHT22;5001;51.674;7.868;2024-03-08T08:52:40;5.60;99.90
9925;DHT22;5001;51.674;7.868;2024-03-08T08:55:07;5.70;99.90
9925;DHT22;5001;51.674;7.868;2024-03-08T08:57:35;5.90;99.90
9925;DHT22;5001;51.674;7.868;2024-03-08T09:00:03;5.90;99.90
9925;DHT22;5001;51.674;7.868;2024-03-08T09:02:34;5.80;99.90
9925;DHT22;5001;51.674;7.868;2024-03-08T09:05:02;5.60;99.90
9925;DHT22;5001;51.674;7.868;2024-03-08T09:07:30;6.70;99.90
9925;DHT22;5001;51.674;7.868;2024-03-08T09:09:57;11.60;99.90
9925;DHT22;5001;51.674;7.868;2024-03-08T09:12:26;14.80;99.90
9925;DHT22;5001;51.674;7.868;2024-03-08T09:14:53;15.50;99.90
9925;DHT22;5001;51.674;7.868;2024-03-08T09:17:21;16.20;99.90
9925;DHT22;5001;51.674;7.868;2024-03-08T09:19:49;16.10;99.90
9925;DHT22;5001;51.674;7.868;2024-03-08T09:22:16;15.70;99.90
9925;DHT22;5001;51.674;7.868;2024-03-08T09:24:43;16.60;99.90
9925;DHT22;5001;51.674;7.868;2024-03-08T09:27:10;16.40;99.90
9925;DHT22;5001;51.674;7.868;2024-03-08T09:29:37;15.90;99.90
9925;DHT22;5001;51.674;7.868;2024-03-08T09:32:04;16.00;99.90
9925;DHT22;5001;51.674;7.868;2024-03-08T09:34:31;15.10;99.90
9925;DHT22;5001;51.674;7.868;2024-03-08T09:37:04;15.00;99.90
9925;DHT22;5001;51.674;7.868;2024-03-08T09:39:31;16.70;99.90
9925;DHT22;5001;51.674;7.868;2024-03-08T09:42:04;17.60;99.90
9925;DHT22;5001;51.674;7.868;2024-03-08T09:44:32;19.10;99.90
9925;DHT22;5001;51.674;7.868;2024-03-08T09:47:00;18.40;99.90
9925;DHT22;5001;51.674;7.868;2024-03-08T09:49:29;18.60;99.90
9925;DHT22;5001;51.674;7.868;2024-03-08T09:51:56;17.20;99.90
9925;DHT22;5001;51.674;7.868;2024-03-08T09:54:24;17.10;99.90
9925;DHT22;5001;51.674;7.868;2024-03-08T09:56:55;17.50;99.90
9925;DHT22;5001;51.674;7.868;2024-03-08T09:59:21;17.70;99.90
9925;DHT22;5001;51.674;7.868;2024-03-08T10:01:48;17.10;99.90
9925;DHT22;5001;51.674;7.868;2024-03-08T10:04:16;18.60;99.90
9925;DHT22;5001;51.674;7.868;2024-03-08T10:06:45;16.70;99.90
9925;DHT22;5001;51.674;7.868;2024-03-08T10:09:14;17.80;99.90
9925;DHT22;5001;51.674;7.868;2024-03-08T10:11:42;17.40;99.90
9925;DHT22;5001;51.674;7.868;2024-03-08T10:14:10;16.70;99.90
9925;DHT22;5001;51.674;7.868;2024-03-08T10:16:38;16.40;99.90
9925;DHT22;5001;51.674;7.868;2024-03-08T10:19:07;15.30;99.90
9925;DHT22;5001;51.674;7.868;2024-03-08T10:21:34;14.30;99.90
9925;DHT22;5001;51.674;7.868;2024-03-08T10:24:05;15.40;99.90
9925;DHT22;5001;51.674;7.868;2024-03-08T10:26:32;14.80;99.90
9925;DHT22;5001;51.674;7.868;2024-03-08T10:28:59;15.20;99.90
9925;DHT22;5001;51.674;7.868;2024-03-08T10:31:26;16.20;99.90
9925;DHT22;5001;51.674;7.868;2024-03-08T10:33:53;16.00;99.90
9925;DHT22;5001;51.674;7.868;2024-03-08T10:36:21;16.10;99.90
9925;DHT22;5001;51.674;7.868;2024-03-08T10:38:51;16.70;99.90
9925;DHT22;5001;51.674;7.868;2024-03-08T10:41:22;18.60;99.90
9925;DHT22;5001;51.674;7.868;2024-03-08T10:49:17;17.50;99.90
9925;DHT22;5001;51.674;7.868;2024-03-08T10:51:44;18.30;99.90
9925;DHT22;5001;51.674;7.868;2024-03-08T10:54:14;18.60;99.90
9925;DHT22;5001;51.674;7.868;2024-03-08T10:56:42;17.40;99.90
9925;DHT22;5001;51.674;7.868;2024-03-08T10:59:10;18.00;99.90
9925;DHT22;5001;51.674;7.868;2024-03-08T11:01:37;18.30;99.90
9925;DHT22;5001;51.674;7.868;2024-03-08T11:04:07;17.80;99.90
9925;DHT22;5001;51.674;7.868;2024-03-08T11:09:30;16.20;99.90
9925;DHT22;5001;51.674;7.868;2024-03-08T11:12:20;16.90;99.90
9925;DHT22;5001;51.674;7.868;2024-03-08T11:14:49;17.20;99.90
9925;DHT22;5001;51.674;7.868;2024-03-08T11:20:01;17.40;99.90
9925;DHT22;5001;51.674;7.868;2024-03-08T11:22:33;16.30;99.90
9925;DHT22;5001;51.674;7.868;2024-03-08T11:25:04;16.20;99.90
9925;DHT22;5001;51.674;7.868;2024-03-08T11:27:37;15.60;99.90
9925;DHT22;5001;51.674;7.868;2024-03-08T11:30:06;15.00;99.90
9925;DHT22;5001;51.674;7.868;2024-03-08T11:32:45;14.60;99.90
9925;DHT22;5001;51.674;7.868;2024-03-08T11:35:20;14.90;99.90
9925;DHT22;5001;51.674;7.868;2024-03-08T11:37:48;14.50;99.90
9925;DHT22;5001;51.674;7.868;2024-03-08T11:40:15;14.30;99.90
9925;DHT22;5001;51.674;7.868;2024-03-08T11:42:47;13.80;99.90
9925;DHT22;5001;51.674;7.868;2024-03-08T11:45:16;14.50;99.90
9925;DHT22;5001;51.674;7.868;2024-03-08T11:47:45;13.70;99.90
9925;DHT22;5001;51.674;7.868;2024-03-08T11:50:17;13.80;99.90
9925;DHT22;5001;51.674;7.868;2024-03-08T11:52:47;13.90;99.90
9925;DHT22;5001;51.674;7.868;2024-03-08T11:55:14;13.80;99.90
9925;DHT22;5001;51.674;7.868;2024-03-08T11:57:41;13.30;99.90
9925;DHT22;5001;51.674;7.868;2024-03-08T12:00:18;13.20;99.90
9925;DHT22;5001;51.674;7.868;2024-03-08T12:03:02;13.50;99.90
9925;DHT22;5001;51.674;7.868;2024-03-08T12:05:29;13.00;99.90
9925;DHT22;5001;51.674;7.868;2024-03-08T12:07:58;12.90;99.90
9925;DHT22;5001;51.674;7.868;2024-03-08T12:10:26;12.90;99.90
9925;DHT22;5001;51.674;7.868;2024-03-08T12:12:54;12.80;99.90
9925;DHT22;5001;51.674;7.868;2024-03-08T12:15:23;13.50;99.90
9925;DHT22;5001;51.674;7.868;2024-03-08T12:17:51;13.80;99.90
9925;DHT22;5001;51.674;7.868;2024-03-08T12:20:24;13.90;99.90
9925;DHT22;5001;51.674;7.868;2024-03-08T12:22:57;13.80;99.90
9925;DHT22;5001;51.674;7.868;2024-03-08T12:25:31;13.00;99.90
9925;DHT22;5001;51.674;7.868;2024-03-08T12:28:11;12.50;99.90
9925;DHT22;5001;51.674;7.868;2024-03-08T12:30:47;12.90;99.90
9925;DHT22;5001;51.674;7.868;2024-03-08T12:33:14;12.80;99.90
9925;DHT22;5001;51.674;7.868;2024-03-08T12:35:50;12.80;99.90
9925;DHT22;5001;51.674;7.868;2024-03-08T12:38:21;13.10;99.90
9925;DHT22;5001;51.674;7.868;2024-03-08T12:40:58;13.40;99.90
9925;DHT22;5001;51.674;7.868;2024-03-08T12:43:26;12.80;99.90
9925;DHT22;5001;51.674;7.868;2024-03-08T12:46:21;12.70;99.90
9925;DHT22;5001;51.674;7.868;2024-03-08T12:48:49;12.80;99.90
9925;DHT22;5001;51.674;7.868;2024-03-08T12:51:17;12.90;99.90
9925;DHT22;5001;51.674;7.868;2024-03-08T12:53:45;12.40;99.90
9925;DHT22;5001;51.674;7.868;2024-03-08T12:56:28;12.60;99.90
9925;DHT22;5001;51.674;7.868;2024-03-08T12:58:55;12.00;99.90
9925;DHT22;5001;51.674;7.868;2024-03-08T13:01:23;11.80;99.90
9925;DHT22;5001;51.674;7.868;2024-03-08T13:03:50;11.80;99.90
9925;DHT22;5001;51.674;7.868;2024-03-08T13:06:17;11.60;99.90
9925;DHT22;5001;51.674;7.868;2024-03-08T13:08:44;11.40;99.90
9925;DHT22;5001;51.674;7.868;2024-03-08T13:11:11;11.30;99.90
9925;DHT22;5001;51.674;7.868;2024-03-08T13:13:39;11.40;99.90
9925;DHT22;5001;51.674;7.868;2024-03-08T13:16:07;11.00;99.90
9925;DHT22;5001;51.674;7.868;2024-03-08T13:18:36;11.00;99.90
9925;DHT22;5001;51.674;7.868;2024-03-08T13:21:03;11.10;99.90
9925;DHT22;5001;51.674;7.868;2024-03-08T13:23:34;11.00;99.90
9925;DHT22;5001;51.674;7.868;2024-03-08T13:26:08;10.90;99.90
9925;DHT22;5001;51.674;7.868;2024-03-08T13:28:36;10.80;99.90
9925;DHT22;5001;51.674;7.868;2024-03-08T13:31:07;10.90;99.90
9925;DHT22;5001;51.674;7.868;2024-03-08T13:33:33;10.80;99.90
9925;DHT22;5001;51.674;7.868;2024-03-08T13:36:04;10.50;99.90
9925;DHT22;5001;51.674;7.868;2024-03-08T13:38:36;10.40;99.90
9925;DHT22;5001;51.674;7.868;2024-03-08T13:41:03;10.30;99.90
9925;DHT22;5001;51.674;7.868;2024-03-08T13:43:30;10.20;99.90
9925;DHT22;5001;51.674;7.868;2024-03-08T13:46:02;10.20;99.90
9925;DHT22;5001;51.674;7.868;2024-03-08T13:48:29;10.30;99.90
9925;DHT22;5001;51.674;7.868;2024-03-08T13:50:56;10.20;99.90
9925;DHT22;5001;51.674;7.868;2024-03-08T13:53:24;10.20;99.90
9925;DHT22;5001;51.674;7.868;2024-03-08T13:55:51;10.00;99.90
9925;DHT22;5001;51.674;7.868;2024-03-08T13:58:18;10.10;99.90
9925;DHT22;5001;51.674;7.868;2024-03-08T14:00:47;10.20;99.90
9925;DHT22;5001;51.674;7.868;2024-03-08T14:03:15;9.90;99.90
9925;DHT22;5001;51.674;7.868;2024-03-08T14:05:42;10.00;99.90
9925;DHT22;5001;51.674;7.868;2024-03-08T14:08:09;10.00;99.90
9925;DHT22;5001;51.674;7.868;2024-03-08T14:10:38;10.00;99.90
9925;DHT22;5001;51.674;7.868;2024-03-08T14:13:05;9.90;99.90
9925;DHT22;5001;51.674;7.868;2024-03-08T14:15:34;9.90;99.90
9925;DHT22;5001;51.674;7.868;2024-03-08T14:18:02;9.90;99.90
9925;DHT22;5001;51.674;7.868;2024-03-08T14:20:29;10.00;99.90
9925;DHT22;5001;51.674;7.868;2024-03-08T14:22:57;10.10;99.90
9925;DHT22;5001;51.674;7.868;2024-03-08T14:25:24;10.10;99.90
9925;DHT22;5001;51.674;7.868;2024-03-08T14:27:52;10.00;99.90
9925;DHT22;5001;51.674;7.868;2024-03-08T14:30:30;10.00;99.90
9925;DHT22;5001;51.674;7.868;2024-03-08T14:33:05;10.00;99.90
9925;DHT22;5001;51.674;7.868;2024-03-08T14:35:34;10.00;99.90
9925;DHT22;5001;51.674;7.868;2024-03-08T14:38:04;9.90;99.90
9925;DHT22;5001;51.674;7.868;2024-03-08T14:40:31;9.90;99.90
9925;DHT22;5001;51.674;7.868;2024-03-08T14:42:58;9.90;99.90
9925;DHT22;5001;51.674;7.868;2024-03-08T14:45:26;9.90;99.90
9925;DHT22;5001;51.674;7.868;2024-03-08T14:47:53;9.90;99.90
9925;DHT22;5001;51.674;7.868;2024-03-08T14:50:22;9.90;99.90
9925;DHT22;5001;51.674;7.868;2024-03-08T14:52:51;10.00;99.90
9925;DHT22;5001;51.674;7.868;2024-03-08T14:55:19;9.90;99.90
9925;DHT22;5001;51.674;7.868;2024-03-08T14:57:49;10.00;99.90
9925;DHT22;5001;51.674;7.868;2024-03-08T15:00:19;9.90;99.90
9925;DHT22;5001;51.674;7.868;2024-03-08T15:03:02;9.90;99.90
9925;DHT22;5001;51.674;7.868;2024-03-08T15:05:32;9.80;99.90
9925;DHT22;5001;51.674;7.868;2024-03-08T15:08:02;9.80;99.90
9925;DHT22;5001;51.674;7.868;2024-03-08T15:10:37;9.80;99.90
9925;DHT22;5001;51.674;7.868;2024-03-08T15:13:07;9.80;99.90
9925;DHT22;5001;51.674;7.868;2024-03-08T15:15:42;9.90;99.90
9925;DHT22;5001;51.674;7.868;2024-03-08T15:18:12;9.90;99.90
9925;DHT22;5001;51.674;7.868;2024-03-08T15:20:39;10.00;99.90
9925;DHT22;5001;51.674;7.868;2024-03-08T15:23:08;9.80;99.90
9925;DHT22;5001;51.674;7.868;2024-03-08T15:25:37;9.80;99.90
9925;DHT22;5001;51.674;7.868;2024-03-08T15:28:05;9.80;99.90
9925;DHT22;5001;51.674;7.868;2024-03-08T15:30:40;9.90;99.90
9925;DHT22;5001;51.674;7.868;2024-03-08T15:33:11;9.90;99.90
9925;DHT22;5001;51.674;7.868;2024-03-08T15:35:39;9.90;99.90
9925;DHT22;5001;51.674;7.868;2024-03-08T15:38:06;9.90;99.90
9925;DHT22;5001;51.674;7.868;2024-03-08T15:40:33;9.90;99.90
9925;DHT22;5001;51.674;7.868;2024-03-08T15:43:02;9.90;99.90
9925;DHT22;5001;51.674;7.868;2024-03-08T15:45:29;9.90;99.90
9925;DHT22;5001;51.674;7.868;2024-03-08T15:47:58;9.80;99.90
9925;DHT22;5001;51.674;7.868;2024-03-08T15:50:32;9.90;99.90
9925;DHT22;5001;51.674;7.868;2024-03-08T15:53:02;9.80;99.90
9925;DHT22;5001;51.674;7.868;2024-03-08T15:55:30;9.80;99.90
9925;DHT22;5001;51.674;7.868;2024-03-08T15:57:58;9.70;99.90
9925;DHT22;5001;51.674;7.868;2024-03-08T16:00:27;9.70;99.90
9925;DHT22;5001;51.674;7.868;2024-03-08T16:03:04;9.70;99.90
9925;DHT22;5001;51.674;7.868;2024-03-08T16:05:41;9.60;99.90
9925;DHT22;5001;51.674;7.868;2024-03-08T16:08:08;9.60;99.90
9925;DHT22;5001;51.674;7.868;2024-03-08T16:10:46;9.60;99.90
9925;DHT22;5001;51.674;7.868;2024-03-08T16:13:17;9.60;99.90
9925;DHT22;5001;51.674;7.868;2024-03-08T16:15:45;9.50;99.90
9925;DHT22;5001;51.674;7.868;2024-03-08T16:18:16;9.50;99.90
9925;DHT22;5001;51.674;7.868;2024-03-08T16:20:43;9.50;99.90
9925;DHT22;5001;51.674;7.868;2024-03-08T16:23:10;9.40;99.90
9925;DHT22;5001;51.674;7.868;2024-03-08T16:25:38;9.30;99.90
9925;DHT22;5001;51.674;7.868;2024-03-08T16:28:05;9.30;99.90
9925;DHT22;5001;51.674;7.868;2024-03-08T16:30:35;9.30;99.90
9925;DHT22;5001;51.674;7.868;2024-03-08T16:33:02;9.20;99.90
9925;DHT22;5001;51.674;7.868;2024-03-08T16:35:29;9.10;99.90
9925;DHT22;5001;51.674;7.868;2024-03-08T16:37:57;9.10;99.90
9925;DHT22;5001;51.674;7.868;2024-03-08T16:40:24;9.00;99.90